Time;durP1;ratioP1;P1;durP2;ratioP2;P2;SDS_P1;SDS_P2;PMS_P1;PMS_P2;Temp;Humidity;BMP_temperature;BMP_pressure;BME280_temperature;BME280_humidity;BME280_pressure;Samples;Min_cycle;Max_cycle;Signal;HPM_P1;HPM_P2
2022/01/27 00:07:37;;;;;;;35.80;23.13;;;5.50;82.50;;;;;;5019168;28;20814;-73
2022/01/27 00:10:19;;;;;;;35.28;22.02;;;5.40;82.70;;;;;;5024142;28;20524;-74
2022/01/27 00:12:45;;;;;;;36.00;23.00;;;5.40;82.80;;;;;;4999661;28;20136;-73
2022/01/27 00:15:13;;;;;;;34.28;23.88;;;5.30;83.00;;;;;;5019190;28;20491;-72
2022/01/27 00:17:47;;;;;;;33.78;22.77;;;5.20;83.20;;;;;;5015553;28;20029;-75
2022/01/27 00:20:14;;;;;;;34.10;22.45;;;5.10;83.40;;;;;;5017999;28;20077;-72
2022/01/27 00:22:40;;;;;;;35.33;23.67;;;5.10;83.70;;;;;;5020884;28;20059;-73
2022/01/27 00:25:06;;;;;;;35.78;24.60;;;5.00;83.90;;;;;;5016426;28;20091;-74
2022/01/27 00:27:33;;;;;;;33.72;23.27;;;5.00;84.00;;;;;;5017099;28;20026;-72
2022/01/27 00:30:04;;;;;;;34.60;24.20;;;4.90;84.20;;;;;;5018707;28;20041;-72
2022/01/27 00:32:31;;;;;;;38.00;24.13;;;4.90;84.30;;;;;;5017751;28;20093;-74
2022/01/27 00:34:58;;;;;;;40.95;24.80;;;4.90;84.60;;;;;;5027627;28;20533;-73
2022/01/27 00:37:25;;;;;;;38.10;23.35;;;4.80;84.70;;;;;;5021005;28;20436;-72
2022/01/27 00:39:50;;;;;;;36.20;24.30;;;4.80;84.80;;;;;;5026734;28;20041;-73
2022/01/27 00:42:16;;;;;;;38.75;24.83;;;4.70;85.00;;;;;;5019562;28;20034;-75
2022/01/27 00:44:42;;;;;;;38.17;25.25;;;4.70;85.20;;;;;;5021205;28;20037;-72
2022/01/27 00:47:08;;;;;;;36.28;23.08;;;4.70;85.20;;;;;;5019369;28;20029;-75
2022/01/27 00:49:36;;;;;;;42.22;26.55;;;4.60;85.40;;;;;;5024413;28;20022;-75
2022/01/27 00:52:03;;;;;;;45.17;27.05;;;4.60;85.50;;;;;;5028200;28;20160;-75
2022/01/27 00:54:30;;;;;;;44.53;28.35;;;4.60;85.80;;;;;;5024068;28;20038;-73
2022/01/27 00:57:09;;;;;;;42.83;27.17;;;4.60;85.90;;;;;;5022019;28;20037;-74
2022/01/27 00:59:51;;;;;;;43.30;27.25;;;4.60;85.70;;;;;;5025796;28;20048;-75
2022/01/27 01:04:47;;;;;;;43.60;27.33;;;4.60;85.80;;;;;;5015299;28;20034;-74
2022/01/27 01:07:14;;;;;;;50.28;28.70;;;4.70;86.10;;;;;;5021054;28;20041;-73
2022/01/27 01:15:20;;;;;;;47.28;28.05;;;4.70;86.30;;;;;;5021119;28;20042;-73
2022/01/27 01:31:10;;;;;;;44.50;27.48;;;4.70;86.50;;;;;;5024244;28;20040;-72
2022/01/27 01:33:38;;;;;;;43.97;26.90;;;4.70;86.40;;;;;;5023820;28;20476;-72
2022/01/27 01:36:13;;;;;;;43.13;27.17;;;4.70;86.40;;;;;;5023854;28;20041;-73
2022/01/27 01:38:40;;;;;;;44.08;28.40;;;4.70;86.30;;;;;;5022083;28;20445;-74
2022/01/27 01:41:05;;;;;;;41.70;26.45;;;4.70;86.30;;;;;;5021081;28;20436;-73
2022/01/27 01:43:31;;;;;;;42.88;26.55;;;4.80;86.30;;;;;;5018813;28;20042;-73
2022/01/27 01:45:57;;;;;;;43.85;26.30;;;4.80;86.30;;;;;;5026365;28;20029;-74
2022/01/27 01:48:23;;;;;;;42.28;25.15;;;4.90;86.30;;;;;;5025317;28;20057;-73
2022/01/27 01:50:49;;;;;;;41.15;24.15;;;4.90;86.40;;;;;;5022831;28;20044;-74
2022/01/27 01:53:16;;;;;;;41.72;25.30;;;4.90;86.40;;;;;;5023018;28;20056;-73
2022/01/27 01:55:42;;;;;;;38.35;24.83;;;4.90;86.30;;;;;;5029613;28;20091;-73
2022/01/27 01:58:08;;;;;;;41.20;24.85;;;4.90;86.30;;;;;;5023394;28;21478;-74
2022/01/27 02:00:34;;;;;;;42.90;26.02;;;4.90;86.10;;;;;;5025541;28;20102;-74
2022/01/27 02:03:00;;;;;;;46.25;26.70;;;4.90;86.20;;;;;;5021703;28;20071;-74
2022/01/27 02:05:30;;;;;;;42.00;27.20;;;4.80;86.30;;;;;;5014770;28;20299;-73
2022/01/27 02:19:19;;;;;;;46.83;26.63;;;4.80;86.50;;;;;;5019044;28;20084;-73
2022/01/27 02:21:53;;;;;;;43.28;27.10;;;4.80;86.60;;;;;;5019848;28;20084;-74
2022/01/27 02:24:20;;;;;;;43.50;27.30;;;4.80;86.60;;;;;;5023454;28;20171;-74
2022/01/27 02:26:49;;;;;;;49.17;27.70;;;4.80;86.60;;;;;;5021383;28;20068;-73
2022/01/27 02:29:17;;;;;;;47.72;27.55;;;4.80;86.80;;;;;;5020368;28;20489;-73
2022/01/27 02:31:43;;;;;;;43.65;26.95;;;4.80;86.60;;;;;;5019795;28;20022;-75
2022/01/27 02:34:09;;;;;;;43.17;27.33;;;4.80;86.80;;;;;;5018641;28;20037;-75
2022/01/27 02:36:34;;;;;;;47.08;26.98;;;4.70;86.80;;;;;;5023782;28;20099;-74
2022/01/27 02:39:03;;;;;;;45.75;27.17;;;4.60;87.00;;;;;;5018936;28;20112;-74
2022/01/27 02:41:36;;;;;;;44.83;28.48;;;4.60;87.10;;;;;;5009709;28;20545;-73
2022/01/27 02:44:02;;;;;;;46.78;27.63;;;4.50;87.40;;;;;;5019101;28;20480;-73
2022/01/27 02:46:36;;;;;;;53.50;29.42;;;4.50;87.50;;;;;;5019247;28;20476;-73
2022/01/27 02:49:02;;;;;;;45.28;28.02;;;4.50;87.70;;;;;;5021813;28;20554;-74
2022/01/27 02:51:28;;;;;;;50.13;28.10;;;4.40;87.80;;;;;;5019322;28;20030;-73
2022/01/27 02:53:57;;;;;;;49.28;28.75;;;4.40;88.20;;;;;;5029085;28;20033;-76
2022/01/27 02:56:22;;;;;;;49.97;29.30;;;4.40;88.20;;;;;;5016917;28;20061;-75
2022/01/27 02:58:48;;;;;;;48.65;29.13;;;4.30;88.20;;;;;;5023623;28;20471;-73
2022/01/27 03:01:19;;;;;;;44.65;26.75;;;4.40;88.40;;;;;;5021935;28;20040;-73
2022/01/27 03:03:45;;;;;;;48.35;28.25;;;4.40;88.30;;;;;;5023695;28;20055;-73
2022/01/27 03:06:11;;;;;;;46.38;27.50;;;4.40;88.50;;;;;;5017865;28;20404;-73
2022/01/27 03:08:36;;;;;;;47.05;27.65;;;4.50;88.60;;;;;;5011599;28;20063;-73
2022/01/27 03:11:06;;;;;;;47.65;28.42;;;4.60;88.60;;;;;;5024075;28;20724;-74
2022/01/27 03:13:32;;;;;;;49.58;28.60;;;4.60;88.50;;;;;;5021991;28;20037;-74
2022/01/27 03:15:58;;;;;;;52.17;29.95;;;4.70;88.50;;;;;;5020657;28;20095;-74
2022/01/27 03:18:23;;;;;;;48.85;27.48;;;4.70;88.40;;;;;;5005645;28;20037;-75
2022/01/27 03:20:49;;;;;;;51.75;29.27;;;4.70;88.50;;;;;;5020337;28;20457;-74
2022/01/27 03:23:15;;;;;;;48.35;28.38;;;4.70;88.60;;;;;;5022275;28;20381;-73
2022/01/27 03:25:40;;;;;;;49.03;28.33;;;4.80;88.70;;;;;;5019691;28;20033;-72
2022/01/27 03:28:09;;;;;;;44.75;28.27;;;4.70;88.60;;;;;;5017901;28;20036;-73
2022/01/27 03:30:34;;;;;;;47.83;27.35;;;4.70;88.60;;;;;;5024211;28;20045;-73
2022/01/27 03:33:00;;;;;;;48.80;28.88;;;4.70;88.70;;;;;;5016808;28;20358;-73
2022/01/27 03:35:26;;;;;;;45.28;28.33;;;4.60;88.80;;;;;;5019056;28;20040;-73
2022/01/27 03:37:51;;;;;;;55.97;29.85;;;4.60;89.00;;;;;;5019571;28;20033;-73
2022/01/27 03:40:17;;;;;;;51.05;29.45;;;4.60;89.00;;;;;;5026038;28;20033;-73
2022/01/27 03:42:53;;;;;;;55.08;30.40;;;4.60;89.00;;;;;;5019068;28;20323;-72
2022/01/27 03:45:19;;;;;;;52.42;30.33;;;4.50;89.00;;;;;;5018257;28;20278;-74
2022/01/27 03:47:45;;;;;;;51.17;30.52;;;4.50;89.30;;;;;;5018954;28;20056;-73
2022/01/27 03:50:10;;;;;;;56.33;31.23;;;4.50;89.40;;;;;;5019545;28;20119;-73
2022/01/27 03:52:36;;;;;;;57.95;32.28;;;4.50;89.50;;;;;;5022742;28;20095;-72
2022/01/27 03:55:02;;;;;;;58.47;31.42;;;4.40;89.50;;;;;;5000283;28;20107;-74
2022/01/27 03:57:27;;;;;;;52.50;31.83;;;4.40;89.70;;;;;;5017733;28;20037;-73
2022/01/27 03:59:53;;;;;;;56.78;33.25;;;4.40;89.80;;;;;;5020643;28;20072;-72
2022/01/27 04:02:19;;;;;;;54.38;32.72;;;4.40;89.80;;;;;;5027309;28;20480;-73
2022/01/27 04:04:44;;;;;;;51.05;30.55;;;4.40;89.90;;;;;;5012974;28;20037;-74
2022/01/27 04:07:10;;;;;;;57.67;32.53;;;4.30;90.00;;;;;;5021027;28;20030;-74
2022/01/27 04:09:35;;;;;;;56.70;33.60;;;4.30;90.10;;;;;;5020682;28;20049;-74
2022/01/27 04:12:01;;;;;;;56.20;32.90;;;4.30;90.10;;;;;;5024571;28;20429;-73
2022/01/27 04:14:27;;;;;;;56.75;31.52;;;4.30;90.30;;;;;;5023130;28;20045;-74
2022/01/27 04:16:53;;;;;;;61.15;34.47;;;4.30;90.40;;;;;;5016551;28;20045;-75
2022/01/27 04:19:18;;;;;;;58.60;33.78;;;4.40;90.50;;;;;;5018473;28;20034;-73
2022/01/27 04:21:44;;;;;;;59.90;34.22;;;4.40;90.50;;;;;;5028064;28;20119;-73
2022/01/27 04:24:11;;;;;;;59.05;34.28;;;4.40;90.60;;;;;;5025506;28;20037;-73
2022/01/27 04:26:44;;;;;;;59.75;34.17;;;4.40;90.50;;;;;;5027229;28;20488;-73
2022/01/27 04:29:10;;;;;;;56.42;32.80;;;4.40;90.50;;;;;;5020003;28;20473;-72
2022/01/27 04:31:39;;;;;;;61.42;33.90;;;4.40;90.50;;;;;;5018404;28;20037;-73
2022/01/27 04:34:04;;;;;;;64.43;35.33;;;4.40;90.60;;;;;;5019277;28;20099;-72
2022/01/27 04:36:32;;;;;;;64.55;36.83;;;4.30;90.60;;;;;;5018992;28;20030;-73
2022/01/27 04:39:09;;;;;;;66.90;35.60;;;4.30;90.80;;;;;;5021657;28;20061;-72
2022/01/27 04:42:00;;;;;;;69.75;35.13;;;4.30;91.00;;;;;;5021189;28;20037;-72
2022/01/27 04:49:15;;;;;;;66.30;35.47;;;4.20;91.10;;;;;;5025196;28;20057;-73
2022/01/27 04:51:40;;;;;;;71.97;36.38;;;4.30;91.20;;;;;;5017033;28;20034;-72
2022/01/27 04:57:03;;;;;;;75.20;38.13;;;4.30;91.40;;;;;;5008942;28;20026;-73
2022/01/27 04:59:34;;;;;;;70.70;38.60;;;4.30;91.50;;;;;;5018407;28;20072;-73
2022/01/27 05:02:14;;;;;;;73.25;37.30;;;4.40;91.50;;;;;;5019524;28;20131;-72
2022/01/27 05:04:43;;;;;;;70.75;38.60;;;4.30;91.50;;;;;;5019809;28;20465;-73
2022/01/27 05:07:09;;;;;;;70.30;37.67;;;4.30;91.60;;;;;;5019211;28;20496;-73
2022/01/27 05:09:36;;;;;;;69.20;37.08;;;4.30;91.50;;;;;;5022500;28;20099;-73
2022/01/27 05:12:16;;;;;;;66.75;36.38;;;4.30;91.60;;;;;;5007415;28;20056;-71
2022/01/27 05:14:41;;;;;;;78.05;38.67;;;4.30;91.60;;;;;;5015762;28;20422;-74
2022/01/27 05:17:07;;;;;;;74.57;40.28;;;4.30;91.60;;;;;;5004350;28;20048;-74
2022/01/27 05:19:33;;;;;;;72.90;38.40;;;4.30;91.70;;;;;;5025154;28;20021;-72
2022/01/27 05:21:59;;;;;;;79.03;40.28;;;4.30;91.70;;;;;;5021647;28;20052;-72
2022/01/27 05:24:24;;;;;;;72.15;39.17;;;4.20;91.80;;;;;;5001317;28;20139;-73
2022/01/27 05:26:50;;;;;;;74.05;38.20;;;4.30;91.90;;;;;;5018262;28;20474;-72
2022/01/27 05:29:16;;;;;;;81.22;40.13;;;4.30;91.80;;;;;;5014995;28;20048;-72
2022/01/27 05:31:43;;;;;;;78.95;40.67;;;4.20;91.90;;;;;;5015820;28;20052;-72
2022/01/27 05:34:09;;;;;;;75.07;39.83;;;4.30;92.00;;;;;;5013244;28;20042;-73
2022/01/27 05:36:34;;;;;;;79.20;40.65;;;4.30;92.10;;;;;;5014100;28;20489;-75
2022/01/27 05:39:01;;;;;;;89.05;41.70;;;4.40;92.10;;;;;;5017336;28;20724;-73
2022/01/27 05:41:27;;;;;;;83.43;42.03;;;4.40;92.20;;;;;;4999958;28;20025;-74
2022/01/27 05:43:52;;;;;;;78.45;41.58;;;4.50;92.20;;;;;;5015943;28;20037;-72
2022/01/27 05:46:18;;;;;;;79.30;42.95;;;4.60;92.20;;;;;;5001551;28;20049;-73
2022/01/27 05:48:44;;;;;;;79.63;41.78;;;4.60;92.10;;;;;;5014112;28;20029;-72
2022/01/27 05:51:12;;;;;;;82.75;42.05;;;4.70;92.00;;;;;;5006562;28;20120;-73
2022/01/27 05:53:38;;;;;;;74.05;40.13;;;4.70;91.90;;;;;;5013689;28;20388;-73
2022/01/27 05:56:04;;;;;;;77.00;41.38;;;4.80;91.90;;;;;;5001966;28;20045;-73
2022/01/27 05:58:30;;;;;;;72.15;40.08;;;4.80;91.80;;;;;;5016160;28;20036;-74
2022/01/27 06:00:56;;;;;;;75.85;40.92;;;4.80;91.80;;;;;;5016782;28;20033;-73
2022/01/27 06:03:21;;;;;;;76.53;39.97;;;4.90;91.70;;;;;;5015767;28;20113;-73
2022/01/27 06:05:47;;;;;;;77.65;40.42;;;4.90;91.60;;;;;;5024991;28;20461;-72
2022/01/27 06:08:13;;;;;;;75.60;41.28;;;4.90;91.60;;;;;;5026922;28;20404;-72
2022/01/27 06:10:38;;;;;;;68.97;39.80;;;5.00;91.60;;;;;;5013832;28;20034;-74
2022/01/27 06:13:04;;;;;;;67.40;38.08;;;5.10;91.60;;;;;;5010641;28;20042;-73
2022/01/27 06:15:30;;;;;;;75.78;39.25;;;5.10;91.50;;;;;;5010180;28;20041;-73
2022/01/27 06:17:57;;;;;;;77.38;41.00;;;5.10;91.40;;;;;;5014321;28;20499;-75
2022/01/27 06:20:23;;;;;;;71.93;37.95;;;5.20;91.50;;;;;;5014767;28;20481;-73
2022/01/27 06:22:52;;;;;;;76.82;36.45;;;5.20;91.50;;;;;;5015914;28;20062;-75
2022/01/27 06:25:18;;;;;;;68.80;38.25;;;5.30;91.50;;;;;;5015485;28;20370;-73
2022/01/27 06:27:44;;;;;;;66.80;35.55;;;5.30;91.60;;;;;;5016979;28;20037;-73
2022/01/27 06:30:13;;;;;;;64.68;34.67;;;5.50;91.40;;;;;;4997029;28;20673;-72
2022/01/27 06:32:39;;;;;;;64.97;34.97;;;5.50;91.20;;;;;;4999610;28;20506;-73
2022/01/27 06:35:05;;;;;;;67.47;35.22;;;5.50;91.20;;;;;;5032457;28;20476;-72
2022/01/27 06:37:32;;;;;;;64.00;33.25;;;5.60;91.10;;;;;;5037536;28;20395;-71
2022/01/27 06:39:58;;;;;;;60.03;33.20;;;5.60;91.00;;;;;;5015113;28;20544;-73
2022/01/27 06:42:24;;;;;;;64.00;35.67;;;5.70;90.90;;;;;;5018659;28;20048;-73
2022/01/27 06:44:50;;;;;;;63.72;34.25;;;5.70;90.70;;;;;;5021400;28;20021;-73
2022/01/27 06:47:16;;;;;;;60.47;34.20;;;5.70;90.60;;;;;;5024857;28;20095;-73
2022/01/27 06:49:41;;;;;;;60.75;33.58;;;5.70;90.60;;;;;;5018138;28;20176;-73
2022/01/27 06:52:07;;;;;;;65.75;34.28;;;5.70;90.60;;;;;;5016968;28;20144;-73
2022/01/27 06:54:33;;;;;;;56.97;35.50;;;5.70;90.60;;;;;;5020998;28;20476;-73
2022/01/27 06:56:59;;;;;;;62.58;35.47;;;5.60;90.70;;;;;;5013271;28;20038;-72
2022/01/27 06:59:25;;;;;;;67.18;34.47;;;5.60;90.80;;;;;;5015327;28;20124;-73
2022/01/27 07:01:50;;;;;;;64.20;34.65;;;5.60;90.70;;;;;;5011567;28;20495;-72
2022/01/27 07:04:16;;;;;;;61.97;33.58;;;5.60;90.70;;;;;;5014911;28;20096;-72
2022/01/27 07:06:42;;;;;;;68.35;36.65;;;5.60;90.80;;;;;;5020412;28;20234;-74
2022/01/27 07:09:07;;;;;;;61.28;34.40;;;5.60;90.80;;;;;;5004327;28;20179;-72
2022/01/27 07:11:33;;;;;;;59.88;32.50;;;5.60;90.90;;;;;;5019873;28;20461;-74
2022/01/27 07:13:59;;;;;;;55.85;31.80;;;5.60;91.00;;;;;;5024825;28;20052;-72
2022/01/27 07:16:24;;;;;;;57.33;32.08;;;5.60;91.00;;;;;;5016539;28;20037;-73
2022/01/27 07:18:52;;;;;;;60.55;32.85;;;5.60;91.10;;;;;;5007897;28;20368;-72
2022/01/27 07:21:19;;;;;;;55.47;29.42;;;5.60;91.20;;;;;;4995363;28;20104;-73
2022/01/27 07:23:45;;;;;;;53.67;28.95;;;5.70;91.40;;;;;;4989682;28;20113;-75
2022/01/27 07:26:11;;;;;;;52.83;28.52;;;5.70;91.30;;;;;;5016871;28;20045;-76
2022/01/27 07:28:37;;;;;;;56.97;27.45;;;5.80;91.20;;;;;;5019858;28;20239;-77
2022/01/27 07:31:03;;;;;;;43.88;25.48;;;5.80;91.30;;;;;;5018232;28;20090;-75
2022/01/27 07:33:29;;;;;;;49.20;26.63;;;5.90;91.30;;;;;;5023420;28;20089;-72
2022/01/27 07:35:54;;;;;;;45.13;23.52;;;5.90;91.30;;;;;;5020527;28;20502;-72
2022/01/27 07:38:23;;;;;;;42.45;22.45;;;5.90;91.30;;;;;;5020014;28;20092;-74
2022/01/27 07:40:48;;;;;;;39.53;21.10;;;6.00;91.20;;;;;;5017730;28;20032;-71
2022/01/27 07:43:14;;;;;;;41.47;22.42;;;6.10;91.20;;;;;;5019448;28;20064;-71
2022/01/27 07:45:40;;;;;;;43.47;22.67;;;6.10;91.10;;;;;;5011863;28;20365;-71
2022/01/27 07:48:06;;;;;;;43.53;22.63;;;6.10;91.00;;;;;;5012776;28;20033;-70
2022/01/27 07:50:31;;;;;;;41.17;21.05;;;6.20;91.00;;;;;;5011142;28;20456;-70
2022/01/27 07:52:57;;;;;;;39.53;21.98;;;6.30;90.80;;;;;;5018101;28;20049;-71
2022/01/27 07:55:23;;;;;;;44.75;22.17;;;6.30;90.70;;;;;;5014407;28;20501;-70
2022/01/27 07:57:49;;;;;;;41.33;21.20;;;6.40;90.60;;;;;;5017678;28;20492;-72
2022/01/27 08:00:15;;;;;;;39.28;20.63;;;6.50;90.50;;;;;;5019420;28;20033;-71
2022/01/27 08:02:41;;;;;;;38.30;19.55;;;6.50;90.30;;;;;;5021758;28;20061;-69
2022/01/27 08:05:07;;;;;;;40.15;20.50;;;6.60;90.30;;;;;;5015162;28;20038;-69
2022/01/27 08:07:33;;;;;;;35.78;19.75;;;6.70;90.20;;;;;;5015647;28;20437;-70
2022/01/27 08:09:58;;;;;;;39.30;20.42;;;6.70;89.90;;;;;;5024951;28;20030;-70
2022/01/27 08:12:24;;;;;;;38.17;19.23;;;6.80;89.80;;;;;;5018451;28;20029;-71
2022/01/27 08:14:50;;;;;;;33.17;18.45;;;6.80;89.70;;;;;;5015151;28;20065;-69
2022/01/27 08:17:17;;;;;;;37.97;18.85;;;6.90;89.60;;;;;;4999182;28;20038;-70
2022/01/27 08:19:43;;;;;;;33.78;18.52;;;6.90;89.50;;;;;;5019985;28;20038;-71
2022/01/27 08:22:10;;;;;;;35.05;19.65;;;7.00;89.40;;;;;;5009657;28;20125;-69
2022/01/27 08:24:36;;;;;;;39.03;19.25;;;7.10;89.20;;;;;;5008379;28;20372;-71
2022/01/27 08:27:05;;;;;;;30.42;18.38;;;7.10;89.20;;;;;;5006982;28;20055;-71
2022/01/27 08:29:44;;;;;;;35.67;18.25;;;7.10;89.00;;;;;;4998445;28;20069;-70
2022/01/27 08:32:16;;;;;;;39.30;17.80;;;7.20;88.90;;;;;;5017736;28;20034;-69
2022/01/27 08:34:43;;;;;;;31.20;17.95;;;7.20;88.80;;;;;;5000709;28;20045;-69
2022/01/27 08:37:21;;;;;;;30.13;16.40;;;7.20;88.90;;;;;;5013997;28;20049;-69
2022/01/27 08:39:47;;;;;;;34.75;16.83;;;7.30;88.80;;;;;;5013937;28;20375;-69
2022/01/27 08:42:14;;;;;;;29.52;16.63;;;7.30;88.90;;;;;;5018987;28;20038;-69
2022/01/27 08:44:39;;;;;;;35.92;15.93;;;7.30;88.90;;;;;;5017097;28;20125;-69
2022/01/27 08:47:06;;;;;;;30.55;16.05;;;7.40;88.80;;;;;;5015677;28;20329;-69
2022/01/27 08:49:32;;;;;;;32.50;15.27;;;7.40;88.70;;;;;;5014158;28;20536;-69
2022/01/27 08:51:58;;;;;;;38.13;15.85;;;7.50;88.60;;;;;;5013874;28;20037;-69
2022/01/27 08:54:25;;;;;;;30.75;15.73;;;7.50;88.60;;;;;;5021743;28;20180;-69
2022/01/27 08:56:51;;;;;;;30.90;15.38;;;7.50;88.60;;;;;;5018017;28;20243;-70
2022/01/27 08:59:17;;;;;;;32.92;15.65;;;7.60;88.60;;;;;;5026767;28;20128;-69
2022/01/27 09:01:44;;;;;;;29.60;14.90;;;7.60;88.60;;;;;;5019147;28;20064;-70
2022/01/27 09:04:10;;;;;;;29.23;14.88;;;7.60;88.50;;;;;;5016765;28;20037;-70
2022/01/27 09:06:36;;;;;;;28.65;15.25;;;7.60;88.50;;;;;;5020373;28;20033;-69
2022/01/27 09:09:02;;;;;;;29.75;14.45;;;7.60;88.50;;;;;;5020691;28;20038;-69
2022/01/27 09:11:31;;;;;;;27.58;14.05;;;7.70;88.40;;;;;;5019464;28;20631;-68
2022/01/27 09:13:57;;;;;;;25.33;14.95;;;7.70;88.40;;;;;;5011438;28;20596;-67
2022/01/27 09:16:26;;;;;;;27.88;14.57;;;7.70;88.50;;;;;;5029966;28;20029;-68
2022/01/27 09:18:53;;;;;;;23.38;13.70;;;7.70;88.50;;;;;;5014300;28;20108;-68
2022/01/27 09:21:24;;;;;;;23.42;12.70;;;7.70;88.50;;;;;;5040047;28;20068;-70
2022/01/27 09:23:51;;;;;;;25.13;13.25;;;7.80;88.50;;;;;;5015615;28;20466;-68
2022/01/27 09:29:02;;;;;;;27.33;13.57;;;8.00;88.50;;;;;;5030126;28;20044;-70
2022/01/27 09:31:28;;;;;;;27.20;13.00;;;8.00;88.60;;;;;;5022636;28;20084;-68
2022/01/27 09:33:53;;;;;;;26.02;13.43;;;8.10;88.90;;;;;;5033006;28;20033;-68
2022/01/27 09:36:19;;;;;;;28.00;12.23;;;8.10;89.00;;;;;;5025361;28;20064;-69
2022/01/27 09:38:45;;;;;;;27.63;12.35;;;8.10;89.30;;;;;;5020675;28;20017;-68
2022/01/27 09:41:18;;;;;;;28.80;12.23;;;8.10;89.60;;;;;;5017255;28;20053;-68
2022/01/27 09:43:43;;;;;;;26.73;11.45;;;8.10;89.70;;;;;;5015617;28;20406;-68
2022/01/27 09:46:13;;;;;;;23.35;10.63;;;8.00;89.90;;;;;;5007632;28;20084;-68
2022/01/27 09:48:43;;;;;;;25.20;11.48;;;8.10;90.10;;;;;;5019221;28;20350;-68
2022/01/27 09:53:47;;;;;;;22.90;10.27;;;8.10;90.40;;;;;;5025667;28;20041;-67
2022/01/27 09:56:13;;;;;;;22.67;10.02;;;8.10;90.60;;;;;;5048389;28;20056;-67
2022/01/27 09:58:39;;;;;;;24.60;9.68;;;8.10;90.60;;;;;;5022876;28;20050;-68
2022/01/27 10:01:05;;;;;;;20.80;9.15;;;8.10;90.70;;;;;;5027884;28;20032;-68
2022/01/27 10:03:31;;;;;;;24.98;10.63;;;8.10;90.90;;;;;;5034330;28;20039;-70
2022/01/27 10:06:12;;;;;;;23.00;10.50;;;8.10;90.90;;;;;;5017302;28;20120;-69
2022/01/27 10:08:41;;;;;;;22.63;9.50;;;8.20;91.00;;;;;;5039718;28;20520;-67
2022/01/27 10:11:18;;;;;;;25.35;10.57;;;8.20;91.00;;;;;;5023300;28;20040;-68
2022/01/27 10:13:45;;;;;;;24.98;9.82;;;8.30;91.00;;;;;;5023889;28;20041;-68
2022/01/27 10:16:35;;;;;;;22.98;10.48;;;8.20;91.20;;;;;;5030621;28;20045;-67
2022/01/27 10:19:05;;;;;;;23.65;9.15;;;8.40;91.30;;;;;;5017780;28;20039;-71
2022/01/27 10:21:32;;;;;;;19.13;9.20;;;8.40;91.50;;;;;;5030760;28;20044;-68
2022/01/27 10:24:13;;;;;;;24.95;10.32;;;8.40;91.60;;;;;;5034687;28;20357;-68
2022/01/27 10:26:43;;;;;;;23.10;9.88;;;8.40;91.90;;;;;;5034162;28;20079;-68
2022/01/27 10:29:15;;;;;;;21.13;9.35;;;8.30;92.10;;;;;;5031846;28;20394;-68
2022/01/27 10:31:41;;;;;;;20.40;9.77;;;8.30;92.30;;;;;;5035593;28;20112;-68
2022/01/27 10:34:10;;;;;;;19.92;9.35;;;8.30;92.40;;;;;;5053568;28;20047;-68
2022/01/27 10:36:41;;;;;;;24.52;10.05;;;8.40;92.50;;;;;;5053408;28;20029;-68
2022/01/27 10:39:18;;;;;;;25.58;10.10;;;8.40;92.50;;;;;;5020107;28;20033;-68
2022/01/27 10:42:13;;;;;;;21.73;10.10;;;8.50;92.40;;;;;;5033568;28;20030;-68
2022/01/27 10:44:56;;;;;;;25.23;8.93;;;8.50;92.40;;;;;;5000408;28;20096;-67
2022/01/27 10:47:28;;;;;;;22.85;9.15;;;8.50;92.50;;;;;;5013477;28;20307;-68
2022/01/27 10:50:01;;;;;;;20.38;9.13;;;8.50;92.50;;;;;;5014524;28;20034;-68
2022/01/27 10:52:43;;;;;;;23.80;9.40;;;8.50;92.70;;;;;;5016556;28;20087;-68
2022/01/27 10:55:17;;;;;;;24.60;10.70;;;8.50;92.80;;;;;;5029848;28;20030;-68
2022/01/27 10:57:49;;;;;;;24.73;9.77;;;8.50;92.80;;;;;;5012916;28;20034;-68
2022/01/27 11:00:18;;;;;;;24.75;10.02;;;8.50;93.00;;;;;;5013930;28;20029;-68
2022/01/27 11:02:58;;;;;;;20.58;9.27;;;8.50;93.10;;;;;;5013689;28;20025;-68
2022/01/27 11:05:29;;;;;;;20.75;9.85;;;8.50;93.10;;;;;;5013472;28;20033;-69
2022/01/27 11:07:56;;;;;;;22.88;10.23;;;8.50;93.10;;;;;;5013614;28;20026;-68
2022/01/27 11:10:22;;;;;;;22.73;10.20;;;8.50;93.20;;;;;;5013479;28;20038;-68
2022/01/27 11:12:49;;;;;;;20.63;9.68;;;8.50;93.20;;;;;;5021837;28;20048;-68
2022/01/27 11:15:17;;;;;;;30.15;10.95;;;8.50;93.10;;;;;;5026924;28;20034;-68
2022/01/27 11:17:45;;;;;;;21.80;8.90;;;8.50;93.00;;;;;;5032954;28;20357;-68
2022/01/27 11:27:50;;;;;;;26.48;10.25;;;8.60;92.80;;;;;;5024993;28;20045;-68
2022/01/27 11:30:46;;;;;;;24.23;9.88;;;8.60;92.70;;;;;;5012930;28;20068;-68
2022/01/27 11:33:14;;;;;;;23.08;9.27;;;8.70;92.60;;;;;;5015392;28;20037;-68
2022/01/27 11:35:41;;;;;;;27.95;10.02;;;8.70;92.50;;;;;;5020689;28;20112;-68
2022/01/27 11:38:08;;;;;;;27.58;11.43;;;8.70;92.60;;;;;;5012214;28;20030;-68
2022/01/27 11:40:45;;;;;;;24.75;11.70;;;8.80;92.50;;;;;;5008695;28;20108;-69
2022/01/27 11:43:11;;;;;;;25.42;11.70;;;8.80;92.60;;;;;;5007871;28;20036;-69
2022/01/27 11:45:42;;;;;;;24.33;11.85;;;8.90;92.60;;;;;;5013102;28;20050;-68
2022/01/27 11:48:24;;;;;;;27.30;12.75;;;8.90;92.70;;;;;;5009421;28;20048;-68
2022/01/27 11:51:07;;;;;;;30.67;12.90;;;8.90;92.80;;;;;;5012653;28;20037;-69
2022/01/27 11:53:43;;;;;;;28.42;13.05;;;8.90;92.90;;;;;;5012402;28;20539;-69
2022/01/27 11:56:15;;;;;;;23.13;12.00;;;9.00;92.90;;;;;;5007164;28;20189;-69
2022/01/27 11:58:45;;;;;;;26.17;12.73;;;9.10;92.90;;;;;;5013846;28;20381;-68
2022/01/27 12:01:25;;;;;;;23.73;13.38;;;9.10;92.80;;;;;;5010824;28;20041;-69
2022/01/27 12:04:04;;;;;;;25.92;13.65;;;9.10;92.80;;;;;;5010488;28;20420;-68
2022/01/27 12:06:32;;;;;;;30.33;13.93;;;9.10;92.70;;;;;;5012062;28;20026;-69
2022/01/27 12:11:58;;;;;;;31.45;13.95;;;9.10;92.80;;;;;;5012614;28;20022;-67
2022/01/27 12:14:28;;;;;;;26.00;13.13;;;9.10;93.10;;;;;;5010890;28;20052;-67
2022/01/27 12:17:08;;;;;;;30.20;14.20;;;9.10;93.20;;;;;;5012618;28;20054;-67
2022/01/27 12:19:55;;;;;;;32.33;15.38;;;9.10;93.40;;;;;;5013155;28;20029;-68
2022/01/27 12:22:28;;;;;;;26.50;15.13;;;9.10;93.40;;;;;;5011404;28;20034;-68
2022/01/27 12:25:02;;;;;;;27.85;14.90;;;9.10;93.40;;;;;;5021700;28;20136;-67
2022/01/27 12:27:29;;;;;;;32.67;14.15;;;9.10;93.40;;;;;;5054689;28;20037;-70
2022/01/27 12:29:57;;;;;;;26.45;14.15;;;9.20;93.40;;;;;;5038321;28;20492;-70
2022/01/27 12:32:29;;;;;;;23.48;13.35;;;9.10;93.40;;;;;;5034283;28;20029;-69
2022/01/27 12:35:00;;;;;;;29.30;13.25;;;9.20;93.30;;;;;;5036526;28;20041;-71
2022/01/27 12:37:34;;;;;;;21.25;12.25;;;9.10;93.30;;;;;;5034524;28;20022;-70
2022/01/27 12:40:03;;;;;;;23.30;10.85;;;9.10;93.50;;;;;;5024286;28;20034;-70
2022/01/27 12:42:34;;;;;;;23.83;10.63;;;9.00;93.70;;;;;;5023108;28;20055;-69
2022/01/27 12:45:04;;;;;;;24.02;12.27;;;9.00;93.80;;;;;;5019405;28;20148;-70
2022/01/27 12:47:31;;;;;;;22.02;11.15;;;9.00;93.90;;;;;;5014582;28;20473;-69
2022/01/27 12:50:08;;;;;;;23.92;12.18;;;9.00;94.00;;;;;;5001788;28;20679;-70
2022/01/27 12:52:40;;;;;;;22.95;12.80;;;9.10;94.00;;;;;;4994318;28;20390;-72
2022/01/27 12:55:08;;;;;;;25.80;12.75;;;9.10;94.00;;;;;;5014354;28;20136;-69
2022/01/27 12:57:34;;;;;;;25.05;13.43;;;9.10;93.90;;;;;;4999943;28;20120;-69
2022/01/27 13:00:03;;;;;;;26.63;15.07;;;9.20;93.90;;;;;;5013389;28;20584;-69
2022/01/27 13:02:29;;;;;;;27.27;14.93;;;9.10;93.80;;;;;;5012019;28;20139;-70
2022/01/27 13:04:59;;;;;;;22.45;14.75;;;9.20;93.80;;;;;;5013190;28;20037;-70
2022/01/27 13:07:26;;;;;;;24.90;14.00;;;9.30;93.70;;;;;;5016963;28;20079;-69
2022/01/27 13:10:04;;;;;;;24.10;12.05;;;9.30;93.40;;;;;;5018324;28;20044;-69
2022/01/27 13:15:10;;;;;;;25.15;14.02;;;9.40;93.30;;;;;;5019812;28;20099;-69
2022/01/27 13:20:35;;;;;;;18.13;11.40;;;9.40;93.00;;;;;;5021081;28;20540;-71
2022/01/27 13:23:33;;;;;;;23.63;12.05;;;9.40;93.10;;;;;;5017505;28;20033;-69
2022/01/27 13:26:02;;;;;;;24.25;12.77;;;9.50;92.90;;;;;;5017342;28;20140;-69
2022/01/27 13:28:34;;;;;;;22.15;12.85;;;9.50;92.70;;;;;;5015270;28;20029;-69
2022/01/27 13:31:09;;;;;;;22.65;13.38;;;9.40;92.60;;;;;;5010630;28;20049;-70
2022/01/27 13:33:38;;;;;;;19.90;13.38;;;9.40;92.60;;;;;;5016897;28;20034;-70
2022/01/27 13:36:07;;;;;;;20.60;13.60;;;9.40;92.50;;;;;;5013218;28;20037;-71
2022/01/27 13:38:50;;;;;;;25.10;14.05;;;9.40;92.70;;;;;;5018315;28;20104;-70
2022/01/27 13:41:18;;;;;;;22.30;14.05;;;9.40;92.60;;;;;;5020672;28;20034;-69
2022/01/27 13:43:53;;;;;;;21.35;14.48;;;9.40;92.50;;;;;;5016759;28;20412;-69
2022/01/27 13:46:42;;;;;;;25.88;16.33;;;9.40;92.50;;;;;;4990337;28;20041;-71
2022/01/27 13:49:22;;;;;;;22.63;15.38;;;9.40;92.50;;;;;;5008905;28;20177;-71
2022/01/27 13:51:59;;;;;;;21.88;14.25;;;9.40;92.60;;;;;;5005904;28;20097;-71
2022/01/27 13:54:31;;;;;;;27.70;14.90;;;9.40;92.50;;;;;;5008024;28;20509;-70